createdAt,value
2019-01-06T00:00:04.348Z,99276.64
2019-01-06T00:04:19.634Z,99274.67
2019-01-06T00:08:35.728Z,99275.13
2019-01-06T00:12:45.677Z,99273.06
2019-01-06T00:16:55.694Z,99280.30
2019-01-06T00:21:15.982Z,99284.82
2019-01-06T00:25:26.360Z,99289.11
2019-01-06T00:35:00.804Z,99290.02
2019-01-06T00:39:30.768Z,99281.34
2019-01-06T00:43:50.908Z,99284.36
2019-01-06T00:53:12.057Z,99294.37
2019-01-06T01:02:30.647Z,99289.91
2019-01-06T01:07:14.769Z,99291.09
2019-01-06T01:11:36.821Z,99288.23
2019-01-06T01:20:47.098Z,99287.59
2019-01-06T01:25:24.467Z,99286.75
2019-01-06T01:30:01.695Z,99292.30
2019-01-06T01:34:45.758Z,99294.05
2019-01-06T01:39:22.247Z,99293.08
2019-01-06T01:49:03.723Z,99297.14
2019-01-06T01:53:40.483Z,99298.45
2019-01-06T01:58:17.568Z,99302.52
2019-01-06T02:07:59.362Z,99304.48
2019-01-06T02:22:10.678Z,99316.22
2019-01-06T02:26:54.760Z,99319.28
2019-01-06T02:31:16.908Z,99325.05
2019-01-06T02:35:34.531Z,99327.95
2019-01-06T02:40:11.820Z,99323.76
2019-01-06T02:44:55.875Z,99317.86
2019-01-06T02:49:32.458Z,99318.83
2019-01-06T02:54:16.685Z,99312.70
2019-01-06T02:58:53.330Z,99314.41
2019-01-06T03:03:37.398Z,99319.08
2019-01-06T03:08:13.970Z,99321.02
2019-01-06T03:12:34.240Z,99314.95
2019-01-06T03:21:52.605Z,99302.03
2019-01-06T03:26:27.690Z,99293.97
2019-01-06T03:31:11.768Z,99287.83
2019-01-06T03:35:33.673Z,99290.20
2019-01-06T03:40:17.741Z,99296.04
2019-01-06T03:44:37.284Z,99289.72
2019-01-06T03:54:13.006Z,99290.11
2019-01-06T03:58:48.190Z,99276.68
2019-01-06T04:03:24.736Z,99281.92
2019-01-06T04:08:08.804Z,99282.53
2019-01-06T04:12:28.139Z,99280.38
2019-01-06T04:17:12.237Z,99276.84
2019-01-06T04:21:48.885Z,99273.00
2019-01-06T04:26:09.096Z,99276.06
2019-01-06T04:35:12.322Z,99284.77
2019-01-06T04:39:56.393Z,99282.93
2019-01-06T04:44:33.622Z,99284.60
2019-01-06T04:49:17.688Z,99281.03
2019-01-06T04:53:39.873Z,99277.45
2019-01-06T05:02:59.614Z,99278.26
2019-01-06T05:21:38.366Z,99278.00
2019-01-06T05:30:56.851Z,99274.77
2019-01-06T05:35:33.809Z,99275.39
2019-01-06T05:40:18.845Z,99286.83
2019-01-06T05:44:41.218Z,99279.16
2019-01-06T05:49:25.343Z,99278.28
2019-01-06T05:54:03.374Z,99277.73
2019-01-06T05:58:23.896Z,99287.55
2019-01-06T06:03:07.970Z,99290.39
2019-01-06T06:07:30.404Z,99294.45
2019-01-06T06:17:08.997Z,99299.06
2019-01-06T06:21:46.097Z,99290.31
2019-01-06T06:26:23.274Z,99294.66
2019-01-06T06:35:43.669Z,99309.55
2019-01-06T06:40:20.975Z,99314.98
2019-01-06T06:44:58.160Z,99317.02
2019-01-06T06:49:20.317Z,99321.20
2019-01-06T06:54:04.445Z,99328.88
2019-01-06T06:58:28.014Z,99328.02
2019-01-06T07:07:48.337Z,99343.25
2019-01-06T07:17:28.584Z,99352.50
2019-01-06T07:21:51.711Z,99352.86
2019-01-06T07:26:28.850Z,99356.88
2019-01-06T07:31:13.029Z,99355.92
2019-01-06T07:35:50.402Z,99360.81
2019-01-06T07:40:34.464Z,99371.27
2019-01-06T07:45:11.507Z,99367.72
2019-01-06T07:49:55.563Z,99380.28
2019-01-06T07:54:32.356Z,99381.28
2019-01-06T08:03:53.104Z,99385.10
2019-01-06T08:08:10.571Z,99387.07
2019-01-06T08:12:54.648Z,99386.10
2019-01-06T08:17:31.500Z,99392.74
2019-01-06T08:31:41.022Z,99409.67
2019-01-06T08:36:00.268Z,99404.25
2019-01-06T08:41:04.885Z,99409.31
2019-01-06T08:45:24.620Z,99408.73
2019-01-06T08:49:49.499Z,99415.20
2019-01-06T08:54:12.000Z,99413.83
2019-01-06T08:58:56.058Z,99414.61
2019-01-06T09:03:16.224Z,99418.44
2019-01-06T09:08:00.304Z,99420.09
2019-01-06T09:12:42.915Z,99419.77
2019-01-06T09:17:22.961Z,99420.11
2019-01-06T09:21:45.935Z,99423.71
2019-01-06T09:26:26.158Z,99422.36
2019-01-06T09:31:02.838Z,99434.09
2019-01-06T09:35:46.914Z,99429.57
2019-01-06T09:40:24.721Z,99432.92
2019-01-06T09:45:08.769Z,99438.98
2019-01-06T09:49:46.041Z,99439.36
2019-01-06T09:54:10.829Z,99434.36
2019-01-06T09:58:30.426Z,99441.77
2019-01-06T10:03:06.886Z,99445.90
2019-01-06T10:12:26.947Z,99443.16
2019-01-06T10:17:05.490Z,99439.28
2019-01-06T10:21:49.578Z,99433.48
2019-01-06T10:26:07.107Z,99428.16
2019-01-06T10:30:51.182Z,99434.75
2019-01-06T10:35:47.339Z,99436.77
2019-01-06T10:45:15.341Z,99447.27
2019-01-06T10:49:59.405Z,99446.52
2019-01-06T11:09:27.960Z,99443.91
2019-01-06T11:14:12.002Z,99447.41
2019-01-06T11:28:50.771Z,99444.87
2019-01-06T11:38:23.238Z,99457.23
2019-01-06T11:42:48.747Z,99454.69
2019-01-06T11:47:25.766Z,99457.98
2019-01-06T11:52:09.860Z,99454.05
2019-01-06T11:56:46.516Z,99456.43
2019-01-06T12:10:44.962Z,99453.47
2019-01-06T12:15:21.611Z,99456.19
2019-01-06T12:20:05.880Z,99450.76
2019-01-06T12:24:25.748Z,99457.54
2019-01-06T12:29:09.831Z,99455.36
2019-01-06T12:38:28.743Z,99461.70
2019-01-06T12:43:05.796Z,99460.55
2019-01-06T12:48:04.165Z,99458.70
2019-01-06T12:52:18.509Z,99451.92
2019-01-06T13:01:38.823Z,99460.48
2019-01-06T13:06:15.582Z,99463.91
2019-01-06T13:11:12.171Z,99473.77
2019-01-06T13:15:29.935Z,99468.54
2019-01-06T13:20:13.975Z,99472.39
2019-01-06T13:24:31.567Z,99476.68
2019-01-06T13:29:15.646Z,99487.19
2019-01-06T13:33:52.634Z,99488.38
2019-01-06T13:38:43.154Z,99494.45
2019-01-06T13:43:05.896Z,99500.82
2019-01-06T13:47:49.987Z,99506.05
2019-01-06T13:52:07.710Z,99503.95
2019-01-06T13:56:51.824Z,99507.46
2019-01-06T14:01:35.890Z,99509.09
2019-01-06T14:06:12.659Z,99517.78
2019-01-06T14:10:56.749Z,99523.27
2019-01-06T14:15:35.392Z,99524.18
2019-01-06T14:20:31.708Z,99527.00
2019-01-06T14:29:45.386Z,99530.27
2019-01-06T14:34:29.480Z,99540.43
2019-01-06T14:39:10.674Z,99543.03
2019-01-06T14:53:32.066Z,99543.40
2019-01-06T15:03:00.282Z,99545.70
2019-01-06T15:07:44.383Z,99555.19
2019-01-06T15:12:06.938Z,99559.25
2019-01-06T15:16:51.009Z,99555.56
2019-01-06T15:21:27.568Z,99547.48
2019-01-06T15:25:50.000Z,99559.78
2019-01-06T15:30:34.131Z,99571.11
2019-01-06T15:34:56.862Z,99577.54
2019-01-06T15:39:41.026Z,99574.06
2019-01-06T15:44:17.758Z,99570.61
2019-01-06T15:53:11.602Z,99570.61
2019-01-06T15:57:55.659Z,99584.52
2019-01-06T16:02:13.392Z,99578.94
2019-01-06T16:11:15.753Z,99580.75
2019-01-06T16:15:52.614Z,99583.17
2019-01-06T16:20:36.755Z,99586.88
2019-01-06T16:24:59.980Z,99593.20
2019-01-06T16:29:44.108Z,99592.20
2019-01-06T16:33:55.789Z,99589.20
2019-01-06T16:38:05.822Z,99589.91
2019-01-06T16:42:13.154Z,99601.59
2019-01-06T16:46:36.415Z,99603.17
2019-01-06T16:50:43.733Z,99605.46
2019-01-06T16:55:05.723Z,99604.08
2019-01-06T16:59:30.924Z,99608.14
2019-01-06T17:03:40.978Z,99608.25
2019-01-06T17:08:05.702Z,99611.70
2019-01-06T17:12:28.125Z,99610.33
2019-01-06T17:16:51.299Z,99610.64
2019-01-06T17:21:14.731Z,99618.89
2019-01-06T17:25:32.368Z,99618.67
2019-01-06T17:29:51.477Z,99606.48
2019-01-06T17:34:12.971Z,99596.57
2019-01-06T17:38:26.125Z,99598.69
2019-01-06T17:42:33.528Z,99598.89
2019-01-06T17:46:43.573Z,99608.36
2019-01-06T17:51:06.956Z,99608.55
2019-01-06T17:55:26.378Z,99608.27
2019-01-06T17:59:39.162Z,99600.97
2019-01-06T18:03:44.689Z,99611.80
2019-01-06T18:08:07.921Z,99621.37
2019-01-06T18:12:31.433Z,99619.92
2019-01-06T18:16:43.354Z,99624.62
2019-01-06T18:20:50.755Z,99625.89
2019-01-06T18:25:02.115Z,99626.59
2019-01-06T18:29:25.781Z,99626.16
2019-01-06T18:33:48.985Z,99620.86
2019-01-06T18:38:02.394Z,99634.38
2019-01-06T18:42:09.774Z,99629.64
2019-01-06T18:46:32.938Z,99633.63
2019-01-06T18:50:40.488Z,99636.42
2019-01-06T18:54:50.810Z,99637.12
2019-01-06T18:59:03.680Z,99643.27
2019-01-06T19:04:06.126Z,99647.63
2019-01-06T19:08:19.434Z,99648.08
2019-01-06T19:22:57.143Z,99659.59
2019-01-06T19:27:22.711Z,99658.22
2019-01-06T19:31:48.877Z,99655.85
2019-01-06T19:36:04.645Z,99654.92
2019-01-06T19:40:18.944Z,99651.16
2019-01-06T19:44:35.338Z,99656.72
2019-01-06T19:49:06.270Z,99658.72
2019-01-06T19:53:16.429Z,99653.33
2019-01-06T19:57:59.734Z,99660.25
2019-01-06T20:07:51.615Z,99661.45
2019-01-06T20:17:54.515Z,99662.23
2019-01-06T20:22:17.795Z,99667.98
2019-01-06T20:31:56.649Z,99674.16
2019-01-06T20:36:08.046Z,99679.55
2019-01-06T20:40:28.563Z,99683.54
2019-01-06T20:50:02.162Z,99680.25
2019-01-06T20:54:25.311Z,99676.72
2019-01-06T20:58:59.203Z,99676.42
2019-01-06T21:08:55.657Z,99672.34
2019-01-06T21:17:58.039Z,99673.71
2019-01-06T21:22:17.291Z,99678.35
2019-01-06T21:26:55.305Z,99668.72
2019-01-06T21:31:39.424Z,99679.70
2019-01-06T21:35:59.776Z,99681.74
2019-01-06T21:40:43.858Z,99685.19
2019-01-06T21:45:21.078Z,99683.49
2019-01-06T21:50:05.143Z,99686.62
2019-01-06T21:54:43.822Z,99687.35
2019-01-06T21:59:27.907Z,99682.87
2019-01-06T22:03:50.223Z,99688.06
2019-01-06T22:08:34.300Z,99694.50
2019-01-06T22:12:54.123Z,99689.61
2019-01-06T22:17:18.991Z,99693.58
2019-01-06T22:21:56.098Z,99695.03
2019-01-06T22:26:13.611Z,99688.36
2019-01-06T22:35:32.730Z,99685.17
2019-01-06T22:39:52.781Z,99685.31
2019-01-06T22:44:36.842Z,99677.29
2019-01-06T22:53:43.010Z,99689.18
2019-01-06T22:57:53.403Z,99689.13
2019-01-06T23:02:03.496Z,99686.75
2019-01-06T23:06:25.651Z,99685.29
2019-01-06T23:10:39.874Z,99690.03
2019-01-06T23:15:00.263Z,99687.33
2019-01-06T23:30:15.991Z,99687.70
2019-01-06T23:34:41.163Z,99687.65
2019-01-06T23:39:46.030Z,99688.95
2019-01-06T23:44:08.439Z,99686.16
2019-01-06T23:48:52.505Z,99691.19
2019-01-06T23:53:29.648Z,99691.10
